Time;durP1;ratioP1;P1;durP2;ratioP2;P2;SDS_P1;SDS_P2;PMS_P1;PMS_P2;Temp;Humidity;BMP_temperature;BMP_pressure;BME280_temperature;BME280_humidity;BME280_pressure;Samples;Min_cycle;Max_cycle;Signal;HPM_P1;HPM_P2
2022/11/21 00:00:31;;;;;;;;;;;1.50;99.90;;;;;;5023176;28;19921;-81
2022/11/21 00:02:58;;;;;;;;;;;1.50;99.90;;;;;;5012995;28;19933;-80
2022/11/21 00:05:24;;;;;;;;;;;1.50;99.90;;;;;;5016426;28;19922;-80
2022/11/21 00:07:50;;;;;;;;;;;1.40;99.90;;;;;;5018057;28;20361;-80
2022/11/21 00:10:15;;;;;;;;;;;1.50;99.90;;;;;;5031361;28;19933;-86
2022/11/21 00:12:41;;;;;;;;;;;1.50;99.90;;;;;;5019252;28;20035;-80
2022/11/21 00:15:07;;;;;;;;;;;1.50;99.90;;;;;;5015939;28;19932;-81
2022/11/21 00:17:32;;;;;;;;;;;1.40;99.90;;;;;;5020626;28;20370;-80
2022/11/21 00:19:58;;;;;;;;;;;1.50;99.90;;;;;;5022134;28;20364;-80
2022/11/21 00:22:24;;;;;;;;;;;1.40;99.90;;;;;;5038474;28;19964;-81
2022/11/21 00:24:49;;;;;;;;;;;1.50;99.90;;;;;;5023137;28;20352;-83
2022/11/21 00:27:15;;;;;;;;;;;1.50;99.90;;;;;;5019149;28;20295;-81
2022/11/21 00:29:40;;;;;;;;;;;1.50;99.90;;;;;;5034456;28;19971;-81
2022/11/21 00:32:06;;;;;;;;;;;1.40;99.90;;;;;;5023103;28;19921;-80
2022/11/21 00:34:31;;;;;;;;;;;1.40;99.90;;;;;;5033918;28;19928;-80
2022/11/21 00:36:57;;;;;;;;;;;1.40;99.90;;;;;;5019807;28;19929;-81
2022/11/21 00:39:22;;;;;;;;;;;1.40;99.90;;;;;;5042484;28;19940;-86
2022/11/21 00:41:48;;;;;;;;;;;1.40;99.90;;;;;;5013867;28;19922;-81
2022/11/21 00:44:13;;;;;;;;;;;1.40;99.90;;;;;;5018309;28;19925;-80
2022/11/21 00:46:39;;;;;;;;;;;1.50;99.90;;;;;;5018716;28;19921;-81
2022/11/21 00:49:04;;;;;;;;;;;1.50;99.90;;;;;;5018481;28;19928;-80
2022/11/21 00:51:30;;;;;;;;;;;1.40;99.90;;;;;;5017945;28;19923;-83
2022/11/21 00:53:55;;;;;;;;;;;1.50;99.90;;;;;;5018847;28;19929;-83
2022/11/21 00:56:21;;;;;;;;;;;1.50;99.90;;;;;;5034163;28;20361;-81
2022/11/21 00:58:47;;;;;;;;;;;1.40;99.90;;;;;;5016786;28;19921;-80
2022/11/21 01:01:13;;;;;;;;;;;1.50;99.90;;;;;;5022485;28;19931;-80
2022/11/21 01:03:39;;;;;;;;;;;1.40;99.90;;;;;;5017933;28;20273;-81
2022/11/21 01:06:07;;;;;;;;;;;1.40;99.90;;;;;;5033305;28;19929;-84
2022/11/21 01:08:37;;;;;;;;;;;1.40;99.90;;;;;;5021023;28;19931;-80
2022/11/21 01:11:04;;;;;;;;;;;1.40;99.90;;;;;;5031409;28;19929;-81
2022/11/21 01:13:29;;;;;;;;;;;1.40;99.90;;;;;;5033144;28;19929;-82
2022/11/21 01:15:55;;;;;;;;;;;1.40;99.90;;;;;;5018517;28;19925;-80
2022/11/21 01:18:20;;;;;;;;;;;1.30;99.90;;;;;;5024640;28;19922;-80
2022/11/21 01:20:46;;;;;;;;;;;1.30;99.90;;;;;;5020260;28;20375;-80
2022/11/21 01:23:12;;;;;;;;;;;1.30;99.90;;;;;;5007479;28;19928;-80
2022/11/21 01:25:37;;;;;;;;;;;1.40;99.90;;;;;;5038075;28;19927;-80
2022/11/21 01:28:03;;;;;;;;;;;1.40;99.90;;;;;;5031424;28;20365;-81
2022/11/21 01:30:28;;;;;;;;;;;1.40;99.90;;;;;;5013135;28;19961;-84
2022/11/21 01:32:54;;;;;;;;;;;1.40;99.90;;;;;;5018452;28;20299;-80
2022/11/21 01:35:19;;;;;;;;;;;1.50;99.90;;;;;;5020114;28;20429;-80
2022/11/21 01:37:46;;;;;;;;;;;1.50;99.90;;;;;;5017954;28;20482;-80
2022/11/21 01:40:11;;;;;;;;;;;1.40;99.90;;;;;;5020755;28;20410;-80
2022/11/21 01:42:48;;;;;;;;;;;1.40;99.90;;;;;;5017923;28;19968;-85
2022/11/21 01:45:33;;;;;;;;;;;1.50;99.90;;;;;;5037597;28;19922;-82
2022/11/21 01:47:58;;;;;;;;;;;1.50;99.90;;;;;;5021794;28;19921;-80
2022/11/21 01:50:24;;;;;;;;;;;1.40;99.90;;;;;;5017643;28;19936;-83
2022/11/21 01:52:49;;;;;;;;;;;1.50;99.90;;;;;;5035382;28;20311;-80
2022/11/21 01:55:15;;;;;;;;;;;1.50;99.90;;;;;;5008409;28;19928;-80
2022/11/21 01:57:42;;;;;;;;;;;1.50;99.90;;;;;;5016041;28;19925;-81
2022/11/21 02:00:14;;;;;;;;;;;1.50;99.90;;;;;;5032831;28;19969;-83
2022/11/21 02:02:46;;;;;;;;;;;1.50;99.90;;;;;;5015074;28;20008;-80
2022/11/21 02:05:15;;;;;;;;;;;1.60;99.90;;;;;;5018663;28;19921;-82
2022/11/21 02:07:42;;;;;;;;;;;1.60;99.90;;;;;;5018828;28;19921;-81
2022/11/21 02:10:08;;;;;;;;;;;1.50;99.90;;;;;;5024902;28;19935;-81
2022/11/21 02:12:45;;;;;;;;;;;1.50;99.90;;;;;;5034677;28;20011;-81
2022/11/21 02:15:11;;;;;;;;;;;1.50;99.90;;;;;;5021076;28;19951;-81
2022/11/21 02:17:37;;;;;;;;;;;1.50;99.90;;;;;;5018738;28;19991;-81
2022/11/21 02:20:05;;;;;;;;;;;1.50;99.90;;;;;;5019437;28;19921;-81
2022/11/21 02:22:31;;;;;;;;;;;1.50;99.90;;;;;;5019534;28;20003;-84
2022/11/21 02:25:04;;;;;;;;;;;1.50;99.90;;;;;;5022755;28;20086;-80
2022/11/21 02:27:30;;;;;;;;;;;1.50;99.90;;;;;;5021006;28;19960;-80
2022/11/21 02:29:56;;;;;;;;;;;1.50;99.90;;;;;;5026556;28;19964;-80
2022/11/21 02:32:22;;;;;;;;;;;1.50;99.90;;;;;;5020126;28;19921;-81
2022/11/21 02:34:48;;;;;;;;;;;1.50;99.90;;;;;;5024710;28;19924;-81
2022/11/21 02:37:14;;;;;;;;;;;1.50;99.90;;;;;;5024795;28;19928;-80
2022/11/21 02:39:40;;;;;;;;;;;1.40;99.90;;;;;;5024994;28;20007;-81
2022/11/21 02:42:08;;;;;;;;;;;1.40;99.90;;;;;;5040284;28;19925;-81
2022/11/21 02:44:39;;;;;;;;;;;1.40;99.90;;;;;;5018467;28;19925;-80
2022/11/21 02:47:04;;;;;;;;;;;1.50;99.90;;;;;;5018088;28;19929;-81
2022/11/21 02:49:48;;;;;;;;;;;1.50;99.90;;;;;;5026977;28;19922;-82
2022/11/21 02:52:14;;;;;;;;;;;1.50;99.90;;;;;;5027738;28;19921;-81
2022/11/21 02:54:40;;;;;;;;;;;1.50;99.90;;;;;;5023837;28;20335;-82
2022/11/21 02:57:05;;;;;;;;;;;1.50;99.90;;;;;;5020461;28;19928;-81
2022/11/21 02:59:31;;;;;;;;;;;1.50;99.90;;;;;;5035357;28;19922;-80
2022/11/21 03:01:58;;;;;;;;;;;1.40;99.90;;;;;;5033914;28;19972;-81
2022/11/21 03:04:25;;;;;;;;;;;1.40;99.90;;;;;;5039248;28;19922;-81
2022/11/21 03:06:50;;;;;;;;;;;1.40;99.90;;;;;;5040420;28;20440;-87
2022/11/21 03:09:16;;;;;;;;;;;1.30;99.90;;;;;;5018841;28;19921;-81
2022/11/21 03:11:42;;;;;;;;;;;1.30;99.90;;;;;;5021781;28;19968;-80
2022/11/21 03:14:07;;;;;;;;;;;1.20;99.90;;;;;;5009656;28;19923;-80
2022/11/21 03:16:33;;;;;;;;;;;1.20;99.90;;;;;;5037601;28;20039;-80
2022/11/21 03:18:58;;;;;;;;;;;1.20;99.90;;;;;;5036398;28;19932;-82
2022/11/21 03:21:24;;;;;;;;;;;1.20;99.90;;;;;;5032281;28;19968;-84
2022/11/21 03:23:49;;;;;;;;;;;1.20;99.90;;;;;;5025471;28;19925;-80
2022/11/21 03:26:15;;;;;;;;;;;1.20;99.90;;;;;;5023638;28;19921;-80
2022/11/21 03:28:41;;;;;;;;;;;1.10;99.90;;;;;;5020151;28;19925;-80
2022/11/21 03:31:07;;;;;;;;;;;1.10;99.90;;;;;;5022323;28;19921;-81
2022/11/21 03:33:32;;;;;;;;;;;1.20;99.90;;;;;;5034958;28;19951;-82
2022/11/21 03:35:58;;;;;;;;;;;1.10;99.90;;;;;;5022693;28;20008;-80
2022/11/21 03:38:24;;;;;;;;;;;1.10;99.90;;;;;;5018703;28;19921;-81
2022/11/21 03:40:49;;;;;;;;;;;1.10;99.90;;;;;;5020928;28;19921;-80
2022/11/21 03:43:15;;;;;;;;;;;1.10;99.90;;;;;;5019569;28;19921;-81
2022/11/21 03:45:40;;;;;;;;;;;1.10;99.90;;;;;;5021306;28;19982;-80
2022/11/21 03:48:06;;;;;;;;;;;1.00;99.90;;;;;;5038569;28;19928;-81
2022/11/21 03:50:31;;;;;;;;;;;1.00;99.90;;;;;;5016687;28;19925;-81
2022/11/21 03:52:57;;;;;;;;;;;1.00;99.90;;;;;;5022990;28;19921;-80
2022/11/21 03:55:23;;;;;;;;;;;1.00;99.90;;;;;;5037620;28;19925;-80
2022/11/21 03:57:48;;;;;;;;;;;1.00;99.90;;;;;;5019918;28;19960;-80
2022/11/21 04:00:14;;;;;;;;;;;1.00;99.90;;;;;;5019465;28;19932;-80
2022/11/21 04:02:40;;;;;;;;;;;0.90;99.90;;;;;;5026735;28;19929;-81
2022/11/21 04:05:05;;;;;;;;;;;0.90;99.90;;;;;;5024100;28;20291;-80
2022/11/21 04:07:31;;;;;;;;;;;0.90;99.90;;;;;;5014364;28;19928;-80
2022/11/21 04:09:56;;;;;;;;;;;0.90;99.90;;;;;;5033986;28;19929;-80
2022/11/21 04:12:22;;;;;;;;;;;0.90;99.90;;;;;;5022186;28;19929;-81
2022/11/21 04:14:47;;;;;;;;;;;0.90;99.90;;;;;;5024216;28;19925;-86
2022/11/21 04:17:13;;;;;;;;;;;0.80;99.90;;;;;;5021130;28;19925;-80
2022/11/21 04:19:38;;;;;;;;;;;0.70;99.90;;;;;;5026431;28;19925;-80
2022/11/21 04:22:04;;;;;;;;;;;0.60;99.90;;;;;;5014665;28;19975;-80
2022/11/21 04:24:30;;;;;;;;;;;0.50;99.90;;;;;;5021118;28;19921;-80
2022/11/21 04:26:55;;;;;;;;;;;0.50;99.90;;;;;;5048271;28;19983;-80
2022/11/21 04:29:21;;;;;;;;;;;0.40;99.90;;;;;;5031893;28;19932;-80
2022/11/21 04:31:46;;;;;;;;;;;0.30;99.90;;;;;;5049332;28;19972;-80
2022/11/21 04:34:12;;;;;;;;;;;0.20;99.90;;;;;;5026439;28;19925;-80
2022/11/21 04:36:37;;;;;;;;;;;0.20;99.90;;;;;;5024593;28;19922;-80
2022/11/21 04:39:03;;;;;;;;;;;0.20;99.90;;;;;;5034232;28;20027;-80
2022/11/21 04:41:29;;;;;;;;;;;0.10;99.90;;;;;;5021187;28;19929;-81
2022/11/21 04:43:54;;;;;;;;;;;0.00;99.90;;;;;;5023235;28;19921;-81
2022/11/21 04:46:20;;;;;;;;;;;-0.10;99.90;;;;;;5021321;28;20371;-81
2022/11/21 04:48:45;;;;;;;;;;;-0.10;99.90;;;;;;5026292;28;19921;-80
2022/11/21 04:51:11;;;;;;;;;;;-0.20;99.90;;;;;;5023577;28;20387;-80
2022/11/21 04:53:36;;;;;;;;;;;-0.20;99.90;;;;;;5021647;28;19921;-80
2022/11/21 04:56:03;;;;;;;;;;;-0.10;99.90;;;;;;5018188;28;19921;-83
2022/11/21 04:58:28;;;;;;;;;;;-0.20;99.90;;;;;;5021662;28;20008;-81
2022/11/21 05:00:54;;;;;;;;;;;-0.30;99.90;;;;;;5004678;28;20040;-80
2022/11/21 05:03:19;;;;;;;;;;;-0.30;99.90;;;;;;5034427;28;19968;-80
2022/11/21 05:05:45;;;;;;;;;;;-0.30;99.90;;;;;;5019133;28;19926;-80
2022/11/21 05:08:10;;;;;;;;;;;-0.30;99.90;;;;;;5019393;28;19929;-80
2022/11/21 05:13:19;;;;;;;;;;;-0.30;99.90;;;;;;5019288;28;20493;-81
2022/11/21 05:13:22;;;;;;;;;;;-0.30;99.90;;;;;;5019933;28;19925;-81
2022/11/21 05:15:50;;;;;;;;;;;-0.50;99.90;;;;;;5013694;28;19925;-81
2022/11/21 05:18:18;;;;;;;;;;;-0.40;99.90;;;;;;5001646;28;19979;-81
2022/11/21 05:20:44;;;;;;;;;;;-0.50;99.90;;;;;;5027570;28;20313;-81
2022/11/21 05:23:10;;;;;;;;;;;-0.50;99.90;;;;;;5037254;28;19921;-80
2022/11/21 05:25:35;;;;;;;;;;;-0.40;99.90;;;;;;5021175;28;20392;-80
2022/11/21 05:28:01;;;;;;;;;;;-0.40;99.90;;;;;;5004689;28;19932;-80
2022/11/21 05:30:26;;;;;;;;;;;-0.40;99.90;;;;;;5041888;28;20011;-80
2022/11/21 05:32:52;;;;;;;;;;;-0.50;99.90;;;;;;5022418;28;20028;-86
2022/11/21 05:35:17;;;;;;;;;;;-0.40;99.90;;;;;;5014261;28;20360;-80
2022/11/21 05:37:43;;;;;;;;;;;-0.50;99.90;;;;;;5038631;28;19925;-81
2022/11/21 05:40:09;;;;;;;;;;;-0.50;99.90;;;;;;5018670;28;19991;-81
2022/11/21 05:45:21;;;;;;;;;;;-0.50;99.90;;;;;;5028562;28;19999;-85
2022/11/21 05:47:47;;;;;;;;;;;-0.50;99.90;;;;;;5023183;28;20304;-82
2022/11/21 05:50:12;;;;;;;;;;;-0.50;99.90;;;;;;5018692;28;20016;-81
2022/11/21 05:52:38;;;;;;;;;;;-0.50;99.90;;;;;;5016749;28;19929;-80
2022/11/21 05:55:03;;;;;;;;;;;-0.50;99.90;;;;;;5022727;28;20346;-81
2022/11/21 05:57:29;;;;;;;;;;;-0.60;99.90;;;;;;5007071;28;19921;-80
2022/11/21 05:59:55;;;;;;;;;;;-0.60;99.90;;;;;;5012630;28;20372;-80
2022/11/21 06:05:05;;;;;;;;;;;-0.70;99.90;;;;;;5015435;28;20399;-80
2022/11/21 06:07:31;;;;;;;;;;;-0.70;99.90;;;;;;5023046;28;19921;-80
2022/11/21 06:09:56;;;;;;;;;;;-0.70;99.90;;;;;;5019588;28;20006;-80
2022/11/21 06:12:22;;;;;;;;;;;-0.70;99.90;;;;;;5001101;28;19937;-83
2022/11/21 06:14:47;;;;;;;;;;;-0.80;99.90;;;;;;5023760;28;19982;-80
2022/11/21 06:17:13;;;;;;;;;;;-0.80;99.90;;;;;;5017653;28;20277;-81
2022/11/21 06:19:38;;;;;;;;;;;-0.80;99.90;;;;;;4998329;28;19926;-81
2022/11/21 06:22:04;;;;;;;;;;;-0.80;99.90;;;;;;5020931;28;19975;-80
2022/11/21 06:24:30;;;;;;;;;;;-0.80;99.90;;;;;;5020036;28;20245;-80
2022/11/21 06:26:56;;;;;;;;;;;-0.80;99.90;;;;;;5014378;28;19921;-81
2022/11/21 06:29:21;;;;;;;;;;;-0.80;99.90;;;;;;5015045;28;20270;-81
2022/11/21 06:31:47;;;;;;;;;;;-0.80;99.90;;;;;;5026789;28;19960;-80
2022/11/21 06:34:12;;;;;;;;;;;-0.80;99.90;;;;;;4998636;28;20400;-80
2022/11/21 06:36:38;;;;;;;;;;;-0.80;99.90;;;;;;5013052;28;19928;-80
2022/11/21 06:39:03;;;;;;;;;;;-0.80;99.90;;;;;;5025638;28;20000;-80
2022/11/21 06:41:30;;;;;;;;;;;-0.80;99.90;;;;;;5015115;28;19921;-80
2022/11/21 06:44:00;;;;;;;;;;;-0.80;99.90;;;;;;5031018;28;19928;-84
2022/11/21 06:46:26;;;;;;;;;;;-0.90;99.90;;;;;;5011584;28;20283;-80
2022/11/21 06:48:52;;;;;;;;;;;-0.90;99.90;;;;;;5026460;28;20016;-81
2022/11/21 06:51:19;;;;;;;;;;;-0.80;99.90;;;;;;5034165;28;20055;-81
2022/11/21 06:53:45;;;;;;;;;;;-0.90;99.90;;;;;;5033562;28;19972;-80
2022/11/21 06:56:11;;;;;;;;;;;-0.80;99.90;;;;;;5006101;28;19925;-81
2022/11/21 06:58:36;;;;;;;;;;;-0.90;99.90;;;;;;5019949;28;20422;-80
2022/11/21 07:01:06;;;;;;;;;;;-0.80;99.90;;;;;;5021233;28;20116;-86
2022/11/21 07:03:31;;;;;;;;;;;-0.90;99.90;;;;;;5015712;28;19921;-81
2022/11/21 07:06:00;;;;;;;;;;;-0.90;99.90;;;;;;5017335;28;19943;-80
2022/11/21 07:08:26;;;;;;;;;;;-0.80;99.90;;;;;;5023501;28;19971;-81
2022/11/21 07:10:52;;;;;;;;;;;-0.90;99.90;;;;;;5022840;28;19971;-80
2022/11/21 07:13:20;;;;;;;;;;;-0.80;99.90;;;;;;5023894;28;19921;-81
2022/11/21 07:15:46;;;;;;;;;;;-0.80;99.90;;;;;;5024303;28;19936;-80
2022/11/21 07:18:12;;;;;;;;;;;-0.80;99.90;;;;;;5037725;28;19929;-81
2022/11/21 07:20:38;;;;;;;;;;;-0.80;99.90;;;;;;5025313;28;19925;-80
2022/11/21 07:23:04;;;;;;;;;;;-0.90;99.90;;;;;;5017623;28;19957;-81
2022/11/21 07:25:29;;;;;;;;;;;-0.90;99.90;;;;;;5032958;28;19929;-79
2022/11/21 07:27:58;;;;;;;;;;;-0.90;99.90;;;;;;5026785;28;19967;-79
2022/11/21 07:30:24;;;;;;;;;;;-0.90;99.90;;;;;;5022303;28;19928;-80
2022/11/21 07:33:00;;;;;;;;;;;-0.90;99.90;;;;;;5013604;28;20272;-80
2022/11/21 07:35:26;;;;;;;;;;;-1.00;99.90;;;;;;5026122;28;19925;-80
2022/11/21 07:37:52;;;;;;;;;;;-0.90;99.90;;;;;;5035046;28;19928;-82
2022/11/21 07:40:18;;;;;;;;;;;-0.80;99.90;;;;;;5046854;28;20268;-82
2022/11/21 07:42:43;;;;;;;;;;;-0.90;99.90;;;;;;5030877;28;20043;-80
2022/11/21 07:45:09;;;;;;;;;;;-0.80;99.90;;;;;;5025342;28;19932;-80
2022/11/21 07:47:35;;;;;;;;;;;-0.80;99.90;;;;;;5043681;28;19922;-80
2022/11/21 07:50:00;;;;;;;;;;;-0.80;99.90;;;;;;5015807;28;20041;-80
2022/11/21 07:52:29;;;;;;;;;;;-0.80;99.90;;;;;;5000302;28;19929;-83
2022/11/21 07:54:55;;;;;;;;;;;-0.70;99.90;;;;;;5015271;28;20324;-81
2022/11/21 07:57:20;;;;;;;;;;;-0.70;99.90;;;;;;5022735;28;19925;-80
2022/11/21 07:59:46;;;;;;;;;;;-0.70;99.90;;;;;;5015761;28;19927;-80
2022/11/21 08:02:19;;;;;;;;;;;-0.60;99.90;;;;;;5025475;28;19921;-83
2022/11/21 08:04:44;;;;;;;;;;;-0.60;99.90;;;;;;5029858;28;19987;-80
2022/11/21 08:07:10;;;;;;;;;;;-0.50;99.90;;;;;;5028880;28;19925;-80
2022/11/21 08:09:36;;;;;;;;;;;-0.50;99.90;;;;;;5028172;28;19928;-81
2022/11/21 08:12:01;;;;;;;;;;;-0.40;99.90;;;;;;5027584;28;19928;-81
2022/11/21 08:14:27;;;;;;;;;;;-0.30;99.90;;;;;;5026621;28;19925;-81
2022/11/21 08:16:52;;;;;;;;;;;-0.20;99.90;;;;;;5016303;28;19972;-81
2022/11/21 08:19:18;;;;;;;;;;;-0.20;99.90;;;;;;5037086;28;19924;-82
2022/11/21 08:21:43;;;;;;;;;;;-0.10;99.90;;;;;;5031633;28;19936;-80
2022/11/21 08:24:13;;;;;;;;;;;-0.10;99.90;;;;;;5031584;28;19922;-82
2022/11/21 08:26:39;;;;;;;;;;;0.00;99.90;;;;;;5029760;28;19928;-80
2022/11/21 08:29:05;;;;;;;;;;;-0.10;99.90;;;;;;5034686;28;20295;-81
2022/11/21 08:31:30;;;;;;;;;;;0.10;99.90;;;;;;4999574;28;19926;-81
2022/11/21 08:33:56;;;;;;;;;;;0.10;99.90;;;;;;5013262;28;19921;-80
2022/11/21 08:36:22;;;;;;;;;;;0.10;99.90;;;;;;5024558;28;19924;-81
2022/11/21 08:38:47;;;;;;;;;;;0.20;99.90;;;;;;5030040;28;19996;-80
2022/11/21 08:43:57;;;;;;;;;;;0.20;99.90;;;;;;5033029;28;19920;-81
2022/11/21 08:46:26;;;;;;;;;;;0.30;99.90;;;;;;5026689;28;19928;-81
2022/11/21 08:48:53;;;;;;;;;;;0.30;99.90;;;;;;5008558;28;19932;-81
2022/11/21 08:51:18;;;;;;;;;;;0.40;99.90;;;;;;5041809;28;19921;-79
2022/11/21 08:53:44;;;;;;;;;;;0.40;99.90;;;;;;5049057;28;20019;-78
2022/11/21 08:56:10;;;;;;;;;;;0.30;99.90;;;;;;5031112;28;19921;-78
2022/11/21 08:58:35;;;;;;;;;;;0.40;99.90;;;;;;5028286;28;19921;-79
2022/11/21 09:01:01;;;;;;;;;;;0.30;99.90;;;;;;5019943;28;20396;-79
2022/11/21 09:03:26;;;;;;;;;;;0.40;99.90;;;;;;5033609;28;19921;-79
2022/11/21 09:05:54;;;;;;;;;;;0.50;99.90;;;;;;5033466;28;20047;-79
2022/11/21 09:08:20;;;;;;;;;;;0.50;99.90;;;;;;5041475;28;20395;-79
2022/11/21 09:10:45;;;;;;;;;;;0.50;99.90;;;;;;5026469;28;20000;-78
2022/11/21 09:13:11;;;;;;;;;;;0.60;99.90;;;;;;5013874;28;20027;-79
2022/11/21 09:18:21;;;;;;;;;;;0.70;99.90;;;;;;5024454;28;20003;-79
2022/11/21 09:20:46;;;;;;;;;;;0.70;99.90;;;;;;5014763;28;20445;-78
2022/11/21 09:23:13;;;;;;;;;;;0.80;99.90;;;;;;5029562;28;20351;-78
2022/11/21 09:25:39;;;;;;;;;;;0.80;99.90;;;;;;5013313;28;19948;-78
2022/11/21 09:28:05;;;;;;;;;;;1.00;99.90;;;;;;5018024;28;20360;-79
2022/11/21 09:30:31;;;;;;;;;;;0.90;99.90;;;;;;5015215;28;19925;-78
2022/11/21 09:33:00;;;;;;;;;;;0.90;99.90;;;;;;5031680;28;19948;-78
2022/11/21 09:35:26;;;;;;;;;;;1.00;99.90;;;;;;5031499;28;19967;-82
2022/11/21 09:37:52;;;;;;;;;;;1.00;99.90;;;;;;5033337;28;19921;-78
2022/11/21 09:40:17;;;;;;;;;;;1.10;99.90;;;;;;5016657;28;19967;-78
2022/11/21 09:42:46;;;;;;;;;;;1.20;99.90;;;;;;5013275;28;20008;-83
2022/11/21 09:45:11;;;;;;;;;;;1.20;99.90;;;;;;5012925;28;20311;-79
2022/11/21 09:47:41;;;;;;;;;;;1.30;99.90;;;;;;5028731;28;20000;-79
2022/11/21 09:50:13;;;;;;;;;;;1.30;99.90;;;;;;5028602;28;19952;-79
2022/11/21 09:53:11;;;;;;;;;;;1.30;99.90;;;;;;5031173;28;19925;-79
2022/11/21 09:55:50;;;;;;;;;;;1.40;99.90;;;;;;5030305;28;19931;-79
2022/11/21 09:58:15;;;;;;;;;;;1.40;99.90;;;;;;5012955;28;20326;-79
2022/11/21 10:00:41;;;;;;;;;;;1.50;99.90;;;;;;5016382;28;19922;-80
2022/11/21 10:03:08;;;;;;;;;;;1.60;99.90;;;;;;5012988;28;19922;-79
2022/11/21 10:05:46;;;;;;;;;;;1.60;99.90;;;;;;5012785;28;19969;-80
2022/11/21 10:08:20;;;;;;;;;;;1.60;99.90;;;;;;5013142;28;19933;-79
2022/11/21 10:10:52;;;;;;;;;;;1.70;99.90;;;;;;5011848;28;19925;-79
2022/11/21 10:13:27;;;;;;;;;;;1.70;99.90;;;;;;5014065;28;20299;-80
2022/11/21 10:16:11;;;;;;;;;;;1.70;99.90;;;;;;5028178;28;20269;-80
2022/11/21 10:19:15;;;;;;;;;;;1.80;99.90;;;;;;5013084;28;19975;-79
2022/11/21 10:21:44;;;;;;;;;;;1.90;99.90;;;;;;5054551;28;20290;-80
2022/11/21 10:24:09;;;;;;;;;;;2.00;99.90;;;;;;5053227;28;20452;-80
2022/11/21 10:26:49;;;;;;;;;;;2.10;99.90;;;;;;5024883;28;20012;-79
2022/11/21 10:29:30;;;;;;;;;;;2.10;99.90;;;;;;5031814;28;19929;-79
2022/11/21 10:31:59;;;;;;;;;;;2.20;99.90;;;;;;5030462;28;19925;-79
2022/11/21 10:34:28;;;;;;;;;;;2.30;99.90;;;;;;5015496;28;19932;-79
2022/11/21 10:36:56;;;;;;;;;;;2.40;99.90;;;;;;5021666;28;20407;-80
2022/11/21 10:39:40;;;;;;;;;;;2.30;99.90;;;;;;5014713;28;19922;-82
2022/11/21 10:42:25;;;;;;;;;;;2.30;99.90;;;;;;5032982;28;19922;-80
2022/11/21 10:47:36;;;;;;;;;;;2.40;99.90;;;;;;5047818;28;19976;-80
2022/11/21 10:50:08;;;;;;;;;;;2.40;99.90;;;;;;5055860;28;20381;-80
2022/11/21 10:52:35;;;;;;;;;;;2.40;99.90;;;;;;5021947;28;19979;-82
2022/11/21 10:55:02;;;;;;;;;;;2.40;99.90;;;;;;5015037;28;19929;-81
2022/11/21 10:57:30;;;;;;;;;;;2.40;99.90;;;;;;5033507;28;19921;-82
2022/11/21 11:00:00;;;;;;;;;;;2.60;99.90;;;;;;5034749;28;19925;-84
2022/11/21 11:02:26;;;;;;;;;;;2.50;99.90;;;;;;5042984;28;20004;-81
2022/11/21 11:05:10;;;;;;;;;;;2.70;99.90;;;;;;5014893;28;19921;-82
2022/11/21 11:07:36;;;;;;;;;;;2.70;99.90;;;;;;5014317;28;19948;-84
2022/11/21 11:10:15;;;;;;;;;;;2.70;99.90;;;;;;5013945;28;20355;-85
2022/11/21 11:15:25;;;;;;;;;;;2.80;99.90;;;;;;5026056;28;19921;-85
2022/11/21 11:17:55;;;;;;;;;;;2.90;99.90;;;;;;5037836;28;19929;-83
2022/11/21 11:20:40;;;;;;;;;;;2.90;99.90;;;;;;5024728;28;20015;-83
2022/11/21 11:23:24;;;;;;;;;;;2.90;99.90;;;;;;5030079;28;19922;-82
2022/11/21 11:25:52;;;;;;;;;;;2.90;99.90;;;;;;5034584;28;19921;-84
2022/11/21 11:28:18;;;;;;;;;;;3.00;99.90;;;;;;5031719;28;19936;-82
2022/11/21 11:30:45;;;;;;;;;;;3.10;99.90;;;;;;5029093;28;20016;-81
2022/11/21 11:33:26;;;;;;;;;;;3.20;99.90;;;;;;5027950;28;20336;-81
2022/11/21 11:35:52;;;;;;;;;;;3.30;99.90;;;;;;5044653;28;19932;-83
2022/11/21 11:38:19;;;;;;;;;;;3.30;99.90;;;;;;5032471;28;20283;-82
2022/11/21 11:40:45;;;;;;;;;;;3.30;99.90;;;;;;5047664;28;20011;-81
2022/11/21 11:49:10;;;;;;;;;;;3.60;99.90;;;;;;5029990;28;19922;-80
2022/11/21 11:51:38;;;;;;;;;;;3.60;99.90;;;;;;5014665;28;20024;-81
2022/11/21 11:54:12;;;;;;;;;;;3.60;99.90;;;;;;5030829;28;19937;-83
2022/11/21 11:56:37;;;;;;;;;;;3.50;99.90;;;;;;5014707;28;19928;-84
2022/11/21 11:59:19;;;;;;;;;;;3.50;99.90;;;;;;5031526;28;19921;-80
2022/11/21 12:02:11;;;;;;;;;;;3.30;99.90;;;;;;5034538;28;19921;-81
2022/11/21 12:04:39;;;;;;;;;;;3.30;99.90;;;;;;5034089;28;19925;-80
2022/11/21 12:07:14;;;;;;;;;;;3.40;99.90;;;;;;5033328;28;20016;-82
2022/11/21 12:10:03;;;;;;;;;;;3.40;99.90;;;;;;5017552;28;19929;-82
2022/11/21 12:12:28;;;;;;;;;;;3.40;99.90;;;;;;5022466;28;20020;-81
2022/11/21 12:18:06;;;;;;;;;;;3.60;99.90;;;;;;5013757;28;19922;-80
2022/11/21 12:20:51;;;;;;;;;;;3.60;99.90;;;;;;5013963;28;20350;-80
2022/11/21 12:23:18;;;;;;;;;;;3.60;99.90;;;;;;5013019;28;20376;-82
2022/11/21 12:26:03;;;;;;;;;;;3.70;99.90;;;;;;5013635;28;20009;-81
2022/11/21 12:28:35;;;;;;;;;;;3.80;99.90;;;;;;5013430;28;19925;-80
2022/11/21 12:31:20;;;;;;;;;;;3.80;99.90;;;;;;5016449;28;19925;-81
2022/11/21 12:34:09;;;;;;;;;;;3.80;99.90;;;;;;5033821;28;19922;-80
2022/11/21 12:36:34;;;;;;;;;;;3.80;99.90;;;;;;5016149;28;19925;-80
2022/11/21 12:39:00;;;;;;;;;;;3.80;99.90;;;;;;5013187;28;20414;-81
2022/11/21 12:44:31;;;;;;;;;;;3.70;99.90;;;;;;5034020;28;19921;-81
2022/11/21 12:47:14;;;;;;;;;;;3.70;99.90;;;;;;5049521;28;20018;-80
2022/11/21 12:55:18;;;;;;;;;;;3.70;99.90;;;;;;5012643;28;20395;-81
2022/11/21 12:58:02;;;;;;;;;;;3.70;99.90;;;;;;5013932;28;19925;-80
2022/11/21 13:00:47;;;;;;;;;;;3.80;99.90;;;;;;5031139;28;19922;-81
2022/11/21 13:03:16;;;;;;;;;;;3.80;99.90;;;;;;5016079;28;20380;-82
2022/11/21 13:05:45;;;;;;;;;;;3.80;99.90;;;;;;5013779;28;19944;-80
2022/11/21 13:08:13;;;;;;;;;;;3.70;99.90;;;;;;5012592;28;19951;-81
2022/11/21 13:10:41;;;;;;;;;;;3.70;99.90;;;;;;5013122;28;19928;-81
2022/11/21 13:13:06;;;;;;;;;;;3.60;99.90;;;;;;5014379;28;19956;-81
2022/11/21 13:15:36;;;;;;;;;;;3.60;99.90;;;;;;5013615;28;20055;-80
2022/11/21 13:18:04;;;;;;;;;;;3.60;99.90;;;;;;5029061;28;19964;-81
2022/11/21 13:20:49;;;;;;;;;;;3.60;99.90;;;;;;5013830;28;20337;-80
2022/11/21 13:23:30;;;;;;;;;;;3.60;99.90;;;;;;5027219;28;19935;-80
2022/11/21 13:25:56;;;;;;;;;;;3.60;99.90;;;;;;5033189;28;19925;-81
2022/11/21 13:28:22;;;;;;;;;;;3.60;99.90;;;;;;5035832;28;19928;-79
2022/11/21 13:30:49;;;;;;;;;;;3.60;99.90;;;;;;5037455;28;20380;-80
2022/11/21 13:33:33;;;;;;;;;;;3.70;99.90;;;;;;5034730;28;20285;-81
2022/11/21 13:35:59;;;;;;;;;;;3.70;99.90;;;;;;5050313;28;20331;-82
2022/11/21 13:38:25;;;;;;;;;;;3.70;99.90;;;;;;5031755;28;19947;-81
2022/11/21 13:43:36;;;;;;;;;;;3.70;99.90;;;;;;5021286;28;19921;-82
2022/11/21 13:46:02;;;;;;;;;;;3.70;99.90;;;;;;5013190;28;20329;-81
2022/11/21 13:48:51;;;;;;;;;;;3.70;99.90;;;;;;5012149;28;20353;-80
2022/11/21 13:51:36;;;;;;;;;;;3.70;99.90;;;;;;5012864;28;20369;-81
2022/11/21 13:54:04;;;;;;;;;;;3.70;99.90;;;;;;5015435;28;19922;-81
2022/11/21 13:56:57;;;;;;;;;;;3.80;99.90;;;;;;5013023;28;19974;-80
2022/11/21 13:59:42;;;;;;;;;;;3.80;99.90;;;;;;5011882;28;19929;-81
2022/11/21 14:02:07;;;;;;;;;;;3.80;99.90;;;;;;5030353;28;19955;-81
2022/11/21 14:04:35;;;;;;;;;;;3.90;99.90;;;;;;5014492;28;19922;-80
2022/11/21 14:07:40;;;;;;;;;;;3.90;99.90;;;;;;5011915;28;19921;-81
2022/11/21 14:10:18;;;;;;;;;;;3.90;99.90;;;;;;4993775;28;19925;-83
2022/11/21 14:12:46;;;;;;;;;;;3.90;99.90;;;;;;5010511;28;20338;-80
2022/11/21 14:15:18;;;;;;;;;;;3.90;99.90;;;;;;5024933;28;19925;-81
2022/11/21 14:17:47;;;;;;;;;;;3.90;99.90;;;;;;5036795;28;19967;-81
2022/11/21 14:20:21;;;;;;;;;;;3.90;99.90;;;;;;5035543;28;19928;-81
2022/11/21 14:22:52;;;;;;;;;;;3.90;99.90;;;;;;5052093;28;19921;-81
2022/11/21 14:25:19;;;;;;;;;;;4.00;99.90;;;;;;5030813;28;20012;-82
2022/11/21 14:27:51;;;;;;;;;;;4.00;99.90;;;;;;5031975;28;20319;-80
2022/11/21 14:30:29;;;;;;;;;;;3.90;99.90;;;;;;5016693;28;19925;-81
2022/11/21 14:32:54;;;;;;;;;;;3.90;99.90;;;;;;5016692;28;19968;-81
2022/11/21 14:35:22;;;;;;;;;;;3.90;99.90;;;;;;5016565;28;19964;-81
2022/11/21 14:37:47;;;;;;;;;;;3.90;99.90;;;;;;4999211;28;19925;-80
2022/11/21 14:40:18;;;;;;;;;;;3.90;99.90;;;;;;5015395;28;19944;-81
2022/11/21 14:42:44;;;;;;;;;;;4.00;99.90;;;;;;5015600;28;19980;-80
2022/11/21 14:45:17;;;;;;;;;;;3.90;99.90;;;;;;5015313;28;20439;-80
2022/11/21 14:47:47;;;;;;;;;;;4.00;99.90;;;;;;5015793;28;20391;-81
2022/11/21 14:50:29;;;;;;;;;;;4.00;99.90;;;;;;5016650;28;19925;-81
2022/11/21 14:52:58;;;;;;;;;;;4.00;99.90;;;;;;5031582;28;19933;-80
2022/11/21 14:55:28;;;;;;;;;;;4.00;99.90;;;;;;5014942;28;19932;-81
2022/11/21 14:57:54;;;;;;;;;;;4.10;99.90;;;;;;5009684;28;19925;-81
2022/11/21 15:00:21;;;;;;;;;;;4.10;99.90;;;;;;5016112;28;19944;-80
2022/11/21 15:02:49;;;;;;;;;;;4.10;99.90;;;;;;5031257;28;20415;-81
2022/11/21 15:05:15;;;;;;;;;;;4.20;99.90;;;;;;5031593;28;19986;-80
2022/11/21 15:07:41;;;;;;;;;;;4.10;99.90;;;;;;5040164;28;19976;-81
2022/11/21 15:10:14;;;;;;;;;;;4.10;99.90;;;;;;5038615;28;19968;-80